Time;durP1;ratioP1;P1;durP2;ratioP2;P2;SDS_P1;SDS_P2;PMS_P1;PMS_P2;Temp;Humidity;BMP_temperature;BMP_pressure;BME280_temperature;BME280_humidity;BME280_pressure;Samples;Min_cycle;Max_cycle;Signal;HPM_P1;HPM_P2
2022/05/16 00:01:31;;;;;;;12.30;3.38;;;13.40;99.90;;;;;;4937171;29;20053;-81
2022/05/16 00:04:05;;;;;;;10.32;3.75;;;13.30;99.90;;;;;;4935630;29;20051;-81
2022/05/16 00:06:54;;;;;;;8.32;3.03;;;13.30;99.90;;;;;;4934642;29;20051;-81
2022/05/16 00:09:26;;;;;;;7.35;3.08;;;13.30;99.90;;;;;;4965018;28;20453;-81
2022/05/16 00:12:24;;;;;;;9.00;4.00;;;13.30;99.90;;;;;;4996334;28;20085;-81
2022/05/16 00:15:49;;;;;;;14.68;3.78;;;13.30;99.90;;;;;;4976083;28;20058;-81
2022/05/16 00:18:35;;;;;;;8.15;3.10;;;13.20;99.90;;;;;;4996196;28;20109;-81
2022/05/16 00:21:24;;;;;;;8.38;3.10;;;13.20;99.90;;;;;;4997348;28;20111;-81
2022/05/16 00:27:46;;;;;;;;;;;;;;;;;;;;;
2022/05/16 00:30:31;;;;;;;;;;;;;;;;;;;;;
2022/05/16 00:33:41;;;;;;;10.02;3.70;;;13.20;99.90;;;;;;5020251;28;20077;-81
2022/05/16 00:36:33;;;;;;;6.47;2.92;;;13.20;99.90;;;;;;4997361;28;20408;-81
2022/05/16 00:39:08;;;;;;;13.18;3.72;;;13.20;99.90;;;;;;4995650;28;20085;-81
2022/05/16 00:41:38;;;;;;;11.57;3.83;;;13.20;99.90;;;;;;4996538;28;20072;-81
2022/05/16 00:44:28;;;;;;;7.57;3.53;;;13.20;99.90;;;;;;4996025;28;20446;-81
2022/05/16 00:46:57;;;;;;;6.03;2.85;;;13.10;99.90;;;;;;4993534;28;20033;-81
2022/05/16 00:49:28;;;;;;;5.78;3.35;;;13.00;99.90;;;;;;5009860;28;20085;-81
2022/05/16 00:52:17;;;;;;;14.00;4.00;;;13.10;99.90;;;;;;4993414;28;20033;-81
2022/05/16 00:55:00;;;;;;;11.32;3.17;;;13.10;99.90;;;;;;4993007;28;20053;-81
2022/05/16 00:57:33;;;;;;;7.53;3.65;;;13.10;99.90;;;;;;4993869;28;20041;-81
2022/05/16 01:00:20;;;;;;;10.02;3.08;;;13.10;99.90;;;;;;4994676;28;20041;-81
2022/05/16 01:05:59;;;;;;;9.40;3.00;;;13.10;99.90;;;;;;5008846;28;20073;-81
2022/05/16 01:08:30;;;;;;;8.75;3.17;;;13.10;99.90;;;;;;5011410;28;20041;-81
2022/05/16 01:11:07;;;;;;;8.85;3.03;;;13.00;99.90;;;;;;4994521;28;20053;-80
2022/05/16 01:13:39;;;;;;;10.40;3.60;;;13.00;99.90;;;;;;5019062;28;20034;-81
2022/05/16 01:16:14;;;;;;;8.32;3.20;;;13.00;99.90;;;;;;5002794;28;20109;-81
2022/05/16 01:18:43;;;;;;;9.07;3.28;;;13.00;99.90;;;;;;4995639;28;20050;-81
2022/05/16 01:22:07;;;;;;;8.02;3.35;;;12.90;99.90;;;;;;5011333;28;20052;-81
2022/05/16 01:24:33;;;;;;;10.95;3.45;;;13.00;99.90;;;;;;4913618;29;20050;-81
2022/05/16 01:27:02;;;;;;;9.20;3.80;;;12.80;99.90;;;;;;4899080;29;20036;-81
2022/05/16 01:29:35;;;;;;;8.23;2.90;;;12.80;99.90;;;;;;4963084;28;20052;-81
2022/05/16 01:32:04;;;;;;;9.13;3.63;;;12.80;99.90;;;;;;5001399;28;20044;-81
2022/05/16 01:34:30;;;;;;;9.45;2.80;;;12.90;99.90;;;;;;5000929;28;20068;-81
2022/05/16 01:36:56;;;;;;;8.45;4.13;;;12.80;99.90;;;;;;4998876;28;20041;-81
2022/05/16 01:39:28;;;;;;;14.25;3.55;;;12.80;99.90;;;;;;4983782;28;20049;-81
2022/05/16 01:41:58;;;;;;;7.97;4.03;;;12.90;99.90;;;;;;4996219;28;20093;-80
2022/05/16 01:44:24;;;;;;;11.32;3.67;;;12.80;99.90;;;;;;4980645;28;20042;-80
2022/05/16 01:46:50;;;;;;;19.27;3.47;;;12.80;99.90;;;;;;4981088;28;20041;-80
2022/05/16 01:49:16;;;;;;;11.23;3.50;;;12.80;99.90;;;;;;4980856;28;20519;-79
2022/05/16 01:51:42;;;;;;;10.70;2.95;;;12.80;99.90;;;;;;4980397;28;20098;-80
2022/05/16 01:54:11;;;;;;;9.10;3.35;;;12.80;99.90;;;;;;4981963;28;20081;-80
2022/05/16 01:56:40;;;;;;;12.75;3.10;;;12.80;99.90;;;;;;4981472;28;20042;-80
2022/05/16 01:59:07;;;;;;;13.43;2.80;;;12.70;99.90;;;;;;4982243;28;20046;-82
2022/05/16 02:01:40;;;;;;;6.65;3.38;;;12.70;99.90;;;;;;4980951;28;20406;-80
2022/05/16 02:04:12;;;;;;;10.95;3.60;;;12.60;99.90;;;;;;4982454;28;20076;-80
2022/05/16 02:06:38;;;;;;;9.40;4.47;;;12.60;99.90;;;;;;4997451;28;20065;-80
2022/05/16 02:09:07;;;;;;;9.05;3.38;;;12.60;99.90;;;;;;4981966;28;20057;-80
2022/05/16 02:11:36;;;;;;;8.32;3.30;;;12.60;99.90;;;;;;4998460;28;20074;-80
2022/05/16 02:14:03;;;;;;;10.38;3.40;;;12.70;99.90;;;;;;4996400;28;20085;-79
2022/05/16 02:16:29;;;;;;;8.90;3.22;;;12.60;99.90;;;;;;4982046;28;20461;-80
2022/05/16 02:18:55;;;;;;;7.50;3.35;;;12.60;99.90;;;;;;4982151;28;20082;-80
2022/05/16 02:27:15;;;;;;;10.18;4.15;;;12.70;99.90;;;;;;4995992;28;20038;-80
2022/05/16 02:29:47;;;;;;;8.35;3.40;;;12.60;99.90;;;;;;4996884;28;20049;-80
2022/05/16 02:32:23;;;;;;;;;;;12.60;99.90;;;;;;4981110;28;20092;-79
2022/05/16 02:34:50;;;;;;;10.43;2.78;;;12.70;99.90;;;;;;5000086;28;19922;-79
2022/05/16 02:37:15;;;;;;;11.90;3.65;;;12.70;99.90;;;;;;4984705;28;20121;-80
2022/05/16 02:39:44;;;;;;;6.25;2.90;;;12.70;99.90;;;;;;5001291;28;20076;-79
2022/05/16 02:42:11;;;;;;;8.20;2.85;;;12.70;99.90;;;;;;4985035;28;20045;-81
2022/05/16 02:44:43;;;;;;;8.43;3.05;;;12.50;99.90;;;;;;4984357;28;20068;-79
2022/05/16 02:47:32;;;;;;;10.70;4.60;;;12.60;99.90;;;;;;5018172;28;20053;-81
2022/05/16 02:49:58;;;;;;;7.85;3.30;;;12.60;99.90;;;;;;5000527;28;20034;-79
2022/05/16 02:52:36;;;;;;;7.38;3.53;;;12.60;99.90;;;;;;4983592;28;20077;-81
2022/05/16 02:55:06;;;;;;;9.18;3.67;;;12.70;99.90;;;;;;4983828;28;20049;-79
2022/05/16 02:57:37;;;;;;;9.13;3.00;;;12.70;99.90;;;;;;5000509;28;20049;-79
2022/05/16 03:00:10;;;;;;;10.27;3.28;;;12.70;99.90;;;;;;4983789;28;20045;-79
2022/05/16 03:02:37;;;;;;;8.05;3.30;;;12.70;99.90;;;;;;4985720;28;20050;-80
2022/05/16 03:05:07;;;;;;;5.22;2.97;;;12.70;99.90;;;;;;4984659;28;20038;-82
2022/05/16 03:07:53;;;;;;;10.23;2.90;;;12.70;99.90;;;;;;4984639;28;20042;-79
2022/05/16 03:10:22;;;;;;;13.82;3.13;;;12.60;99.90;;;;;;4983387;28;20053;-79
2022/05/16 03:12:51;;;;;;;7.82;3.08;;;12.70;99.90;;;;;;4984501;28;20046;-79
2022/05/16 03:15:18;;;;;;;11.23;3.17;;;12.70;99.90;;;;;;4983356;28;20512;-80
2022/05/16 03:17:53;;;;;;;9.77;3.45;;;12.60;99.90;;;;;;4983757;28;20044;-81
2022/05/16 03:20:31;;;;;;;7.45;3.03;;;12.60;99.90;;;;;;4981378;28;20100;-79
2022/05/16 03:23:00;;;;;;;8.90;3.30;;;12.60;99.90;;;;;;4983561;28;20420;-79
2022/05/16 03:25:26;;;;;;;8.65;2.97;;;12.50;99.90;;;;;;4984486;28;20076;-79
2022/05/16 03:27:57;;;;;;;9.27;2.83;;;12.70;99.90;;;;;;4983956;28;20073;-79
2022/05/16 03:30:39;;;;;;;8.53;3.03;;;12.60;99.90;;;;;;4983746;28;20489;-79
2022/05/16 03:33:09;;;;;;;8.90;2.88;;;12.60;99.90;;;;;;4999091;28;20045;-79
2022/05/16 03:35:41;;;;;;;9.98;2.90;;;12.50;99.90;;;;;;4983511;28;20073;-79
2022/05/16 03:41:36;;;;;;;10.93;3.83;;;12.50;99.90;;;;;;5000624;28;20057;-79
2022/05/16 03:44:03;;;;;;;6.00;3.15;;;12.50;99.90;;;;;;5001221;28;20046;-79
2022/05/16 03:46:37;;;;;;;5.57;2.70;;;12.50;99.90;;;;;;4984588;28;20133;-79
2022/05/16 03:49:19;;;;;;;15.95;3.03;;;12.50;99.90;;;;;;4983959;28;20048;-79
2022/05/16 03:51:59;;;;;;;9.15;3.50;;;12.50;99.90;;;;;;4999582;28;20057;-79
2022/05/16 03:54:28;;;;;;;9.82;3.38;;;12.50;99.90;;;;;;4999163;28;20053;-79
2022/05/16 03:56:54;;;;;;;10.45;2.83;;;12.50;99.90;;;;;;4983261;28;20456;-79
2022/05/16 03:59:20;;;;;;;10.95;3.50;;;12.50;99.90;;;;;;4983555;28;20046;-79
2022/05/16 04:01:46;;;;;;;7.32;2.92;;;12.60;99.90;;;;;;4999684;28;20042;-80
2022/05/16 04:04:26;;;;;;;11.18;3.22;;;12.60;99.90;;;;;;4963179;28;20125;-79
2022/05/16 04:07:06;;;;;;;6.38;2.65;;;12.60;99.90;;;;;;4963108;28;20050;-78
2022/05/16 04:09:53;;;;;;;7.15;2.40;;;12.60;99.90;;;;;;4963504;28;20042;-79
2022/05/16 04:12:22;;;;;;;8.70;2.85;;;12.50;99.90;;;;;;4962113;28;20042;-79
2022/05/16 04:14:52;;;;;;;8.38;2.40;;;12.60;99.90;;;;;;4962177;28;20490;-78
2022/05/16 04:17:30;;;;;;;5.70;2.38;;;12.70;99.90;;;;;;4963112;28;20050;-79
2022/05/16 04:20:03;;;;;;;10.27;3.03;;;12.60;99.90;;;;;;4977702;28;20052;-79
2022/05/16 04:22:37;;;;;;;11.50;3.00;;;12.70;99.90;;;;;;4971471;28;20118;-82
2022/05/16 04:25:08;;;;;;;9.50;2.67;;;12.70;99.90;;;;;;4981906;28;20824;-80
2022/05/16 04:27:40;;;;;;;7.10;2.90;;;12.70;99.90;;;;;;4976727;28;20038;-80
2022/05/16 04:30:15;;;;;;;9.80;3.23;;;12.80;99.90;;;;;;4960891;28;20049;-79
2022/05/16 04:32:41;;;;;;;8.00;2.55;;;12.70;99.90;;;;;;4959701;28;20054;-78
2022/05/16 04:35:07;;;;;;;10.85;3.42;;;12.70;99.90;;;;;;4993448;28;20048;-78
2022/05/16 04:37:34;;;;;;;7.05;2.60;;;12.80;99.90;;;;;;4993563;28;20038;-78
2022/05/16 04:40:00;;;;;;;8.05;2.85;;;12.80;99.90;;;;;;4993243;28;20050;-78
2022/05/16 04:42:41;;;;;;;9.40;2.97;;;12.90;99.90;;;;;;4993299;28;20474;-78
2022/05/16 04:45:16;;;;;;;4.85;2.38;;;12.90;99.90;;;;;;4975784;28;20057;-78
2022/05/16 04:47:42;;;;;;;8.55;2.85;;;13.00;99.90;;;;;;4959674;28;20045;-78
2022/05/16 04:50:10;;;;;;;17.17;7.45;;;13.10;99.90;;;;;;4959414;28;20080;-79
2022/05/16 04:52:36;;;;;;;54.15;24.33;;;13.20;99.90;;;;;;4975910;28;20041;-79
2022/05/16 04:55:01;;;;;;;12.93;6.95;;;13.30;99.90;;;;;;4993227;28;20050;-79
2022/05/16 04:57:27;;;;;;;6.97;3.45;;;13.40;99.90;;;;;;4992704;28;20042;-79
2022/05/16 04:59:53;;;;;;;12.95;3.55;;;13.40;99.90;;;;;;4975585;28;20077;-79
2022/05/16 05:02:18;;;;;;;9.80;3.30;;;13.50;99.90;;;;;;4992714;28;20038;-79
2022/05/16 05:04:44;;;;;;;10.23;2.58;;;13.60;99.90;;;;;;4992731;28;20050;-79
2022/05/16 05:07:11;;;;;;;5.25;2.42;;;13.90;99.90;;;;;;4992888;28;20038;-79
2022/05/16 05:15:07;;;;;;;15.55;6.22;;;15.40;99.90;;;;;;4975264;28;20061;-80
2022/05/16 05:17:33;;;;;;;29.63;12.88;;;15.90;99.90;;;;;;4992689;28;20092;-81
2022/05/16 05:19:58;;;;;;;13.32;3.95;;;16.10;99.90;;;;;;4992328;28;20042;-81
2022/05/16 05:22:24;;;;;;;7.63;3.58;;;16.20;99.90;;;;;;4975144;28;20059;-81
2022/05/16 05:24:49;;;;;;;8.63;2.85;;;16.50;99.90;;;;;;4992515;28;20042;-81
2022/05/16 05:27:15;;;;;;;9.60;3.72;;;16.80;99.90;;;;;;4975570;28;20038;-82
2022/05/16 05:29:41;;;;;;;10.15;3.13;;;17.30;99.90;;;;;;4975130;28;20038;-82
2022/05/16 05:32:07;;;;;;;35.00;19.13;;;17.70;99.90;;;;;;4977202;28;20042;-82
2022/05/16 05:34:34;;;;;;;8.80;3.47;;;18.20;99.90;;;;;;4977662;28;20046;-81
2022/05/16 05:37:00;;;;;;;10.95;4.78;;;18.50;99.90;;;;;;4961286;28;20046;-81
2022/05/16 05:39:26;;;;;;;9.35;4.30;;;18.80;99.90;;;;;;4977917;28;20193;-80
2022/05/16 05:41:52;;;;;;;7.63;2.80;;;19.20;99.90;;;;;;4992140;28;20038;-78
2022/05/16 05:44:18;;;;;;;8.55;3.08;;;19.30;99.90;;;;;;4975329;28;20057;-78
2022/05/16 05:46:43;;;;;;;10.85;3.03;;;19.50;99.90;;;;;;4975793;28;20542;-79
2022/05/16 05:49:12;;;;;;;7.75;3.00;;;19.40;99.90;;;;;;4976593;28;20050;-79
2022/05/16 05:51:38;;;;;;;5.95;2.72;;;19.70;99.90;;;;;;4975184;28;20493;-79
2022/05/16 05:54:05;;;;;;;10.15;3.35;;;20.00;99.90;;;;;;4995034;28;20035;-81
2022/05/16 05:56:30;;;;;;;7.20;2.72;;;20.30;99.90;;;;;;4974944;28;20750;-79
2022/05/16 05:58:56;;;;;;;9.30;2.95;;;20.70;99.90;;;;;;4974224;28;20056;-79
2022/05/16 06:01:22;;;;;;;9.48;3.10;;;21.00;99.90;;;;;;4974413;28;20121;-79
2022/05/16 06:03:48;;;;;;;9.18;3.55;;;21.30;99.90;;;;;;4974359;28;20039;-79
2022/05/16 06:06:14;;;;;;;10.68;2.97;;;21.50;99.90;;;;;;4974313;28;20544;-79
2022/05/16 06:08:39;;;;;;;11.38;2.75;;;21.60;99.90;;;;;;4973606;28;20042;-79
2022/05/16 06:11:05;;;;;;;9.45;2.95;;;21.80;99.90;;;;;;4974002;28;20041;-79
2022/05/16 06:13:30;;;;;;;10.13;3.38;;;22.00;99.90;;;;;;4974660;28;20137;-79
2022/05/16 06:15:56;;;;;;;9.23;2.92;;;22.10;99.90;;;;;;4974909;28;20064;-79
2022/05/16 06:18:22;;;;;;;5.68;2.97;;;22.20;99.90;;;;;;4974755;28;20042;-79
2022/05/16 06:20:48;;;;;;;6.32;2.95;;;22.20;99.40;;;;;;4958559;28;20042;-78
2022/05/16 06:23:13;;;;;;;7.47;2.70;;;22.30;98.30;;;;;;4974221;28;20045;-79
2022/05/16 06:25:42;;;;;;;10.80;3.25;;;22.40;97.60;;;;;;4973917;28;20030;-78
2022/05/16 06:28:12;;;;;;;7.85;3.00;;;22.40;96.70;;;;;;4958090;28;20045;-78
2022/05/16 06:30:41;;;;;;;6.93;3.08;;;22.50;95.60;;;;;;4975346;28;20039;-79
2022/05/16 06:33:11;;;;;;;7.05;2.75;;;22.80;94.80;;;;;;4969617;28;20058;-79
2022/05/16 06:35:37;;;;;;;12.65;3.30;;;22.80;94.40;;;;;;4970068;28;20093;-80
2022/05/16 06:38:10;;;;;;;6.57;2.60;;;22.90;93.70;;;;;;4969423;28;20068;-80
2022/05/16 06:40:36;;;;;;;7.43;2.63;;;23.10;91.90;;;;;;4967736;28;20105;-80
2022/05/16 06:43:02;;;;;;;8.90;2.90;;;23.20;92.20;;;;;;4969115;28;20413;-80
2022/05/16 06:45:28;;;;;;;8.07;2.72;;;23.30;91.60;;;;;;4986425;28;20042;-79
2022/05/16 06:47:54;;;;;;;6.30;2.47;;;23.50;90.30;;;;;;4984322;28;20053;-80
2022/05/16 06:50:25;;;;;;;10.38;3.22;;;23.50;89.90;;;;;;4980245;28;20070;-80
2022/05/16 06:52:53;;;;;;;8.57;3.05;;;23.40;86.80;;;;;;4963996;28;20074;-80
2022/05/16 06:55:19;;;;;;;8.98;3.08;;;23.60;86.30;;;;;;4964292;28;20042;-81
2022/05/16 06:58:28;;;;;;;10.80;3.05;;;23.70;86.90;;;;;;4965529;28;20138;-81
2022/05/16 07:04:55;;;;;;;7.82;2.45;;;23.80;76.80;;;;;;4940935;28;20493;-81
2022/05/16 07:07:24;;;;;;;6.32;2.42;;;23.60;80.40;;;;;;4965559;28;20045;-80
2022/05/16 07:09:50;;;;;;;9.25;3.00;;;23.70;83.60;;;;;;4964742;28;20486;-81
2022/05/16 07:12:15;;;;;;;7.22;2.65;;;23.90;82.30;;;;;;4964257;28;20045;-81
2022/05/16 07:14:41;;;;;;;9.00;2.47;;;23.90;80.30;;;;;;4980249;28;20105;-82
2022/05/16 07:17:07;;;;;;;9.32;3.40;;;23.90;80.00;;;;;;4962760;28;20050;-81
2022/05/16 07:19:35;;;;;;;8.10;2.67;;;23.90;79.40;;;;;;4998013;28;20096;-82
2022/05/16 07:22:11;;;;;;;6.60;2.78;;;23.90;79.20;;;;;;4967568;28;20093;-83
2022/05/16 07:24:40;;;;;;;8.32;2.78;;;24.00;79.00;;;;;;4983739;28;20049;-83
2022/05/16 07:29:50;;;;;;;9.60;2.30;;;24.70;77.50;;;;;;4984055;28;20149;-81
2022/05/16 07:32:16;;;;;;;7.70;2.97;;;25.10;76.80;;;;;;5002516;28;20582;-82
2022/05/16 07:34:42;;;;;;;8.38;2.38;;;25.50;74.30;;;;;;4994870;28;20046;-82
2022/05/16 07:37:08;;;;;;;8.65;2.50;;;25.80;73.20;;;;;;4977599;28;20118;-82
2022/05/16 07:39:35;;;;;;;5.45;2.72;;;25.60;71.80;;;;;;4976328;28;20049;-82
2022/05/16 07:42:02;;;;;;;10.27;3.15;;;25.10;71.40;;;;;;4999856;28;20078;-82
2022/05/16 07:44:28;;;;;;;7.68;2.50;;;24.50;71.50;;;;;;4976848;28;20056;-83
2022/05/16 07:46:54;;;;;;;5.55;2.28;;;23.80;72.10;;;;;;5015784;28;20045;-83
2022/05/16 07:49:22;;;;;;;9.20;3.13;;;23.60;73.40;;;;;;5014931;28;20039;-83
2022/05/16 07:51:48;;;;;;;9.00;2.70;;;23.50;75.10;;;;;;4991296;28;20490;-82
2022/05/16 07:54:13;;;;;;;10.70;2.60;;;23.70;75.70;;;;;;4995512;28;20042;-83
2022/05/16 07:56:39;;;;;;;9.02;2.72;;;23.90;74.60;;;;;;4965840;28;20212;-82
2022/05/16 07:59:06;;;;;;;8.57;2.72;;;24.10;74.00;;;;;;4976514;28;20540;-83
2022/05/16 08:01:31;;;;;;;7.45;3.00;;;24.30;75.00;;;;;;4975886;28;20052;-82
2022/05/16 08:03:57;;;;;;;4.30;2.00;;;24.20;74.70;;;;;;4960273;28;20050;-82
2022/05/16 08:06:27;;;;;;;12.55;3.08;;;24.20;74.50;;;;;;4960283;28;20073;-83
2022/05/16 08:11:37;;;;;;;6.57;2.55;;;24.30;74.40;;;;;;4993424;28;20117;-83
2022/05/16 08:14:03;;;;;;;11.38;3.65;;;24.50;76.20;;;;;;4993661;28;20161;-83
2022/05/16 08:16:29;;;;;;;7.15;2.70;;;24.70;74.80;;;;;;4976258;28;20050;-83
2022/05/16 08:18:55;;;;;;;10.00;3.00;;;25.00;76.70;;;;;;4976233;28;20046;-83
2022/05/16 08:21:20;;;;;;;7.28;2.53;;;25.20;76.30;;;;;;4975821;28;20042;-82
2022/05/16 08:23:46;;;;;;;9.98;2.97;;;25.50;74.50;;;;;;4960183;28;20115;-83
2022/05/16 08:26:12;;;;;;;7.00;2.20;;;25.80;72.60;;;;;;4976305;28;20042;-82
2022/05/16 08:28:39;;;;;;;7.95;3.30;;;26.00;73.20;;;;;;4960077;28;20042;-83
2022/05/16 08:31:05;;;;;;;9.60;2.30;;;26.10;72.30;;;;;;4975111;28;20049;-84
2022/05/16 08:33:36;;;;;;;8.88;2.85;;;26.30;71.30;;;;;;4960112;28;20042;-82
2022/05/16 08:41:54;;;;;;;7.30;2.33;;;25.80;70.20;;;;;;4993136;28;20176;-82
2022/05/16 08:44:27;;;;;;;10.95;2.40;;;25.80;68.00;;;;;;4993270;28;20038;-82
2022/05/16 08:47:00;;;;;;;10.93;3.08;;;25.70;68.90;;;;;;4993191;28;20077;-82
2022/05/16 08:49:46;;;;;;;10.38;2.38;;;25.70;71.50;;;;;;4975306;28;20146;-83
2022/05/16 08:52:25;;;;;;;8.27;2.70;;;25.80;70.80;;;;;;4959373;28;20046;-83
2022/05/16 08:55:05;;;;;;;11.23;3.00;;;26.10;69.80;;;;;;4975483;28;20042;-83
2022/05/16 08:57:56;;;;;;;13.10;2.83;;;26.20;69.40;;;;;;4992729;28;20062;-83
2022/05/16 09:00:33;;;;;;;12.23;2.45;;;26.40;67.70;;;;;;4940605;28;20160;-83
2022/05/16 09:03:03;;;;;;;9.27;1.98;;;26.30;66.10;;;;;;4992547;28;20096;-83
2022/05/16 09:05:35;;;;;;;9.05;2.40;;;26.20;67.50;;;;;;4975419;28;20378;-83
2022/05/16 09:08:04;;;;;;;11.98;2.72;;;26.20;66.50;;;;;;4975202;28;20486;-83
2022/05/16 09:10:53;;;;;;;7.40;2.15;;;26.10;65.60;;;;;;4992227;28;20042;-83
2022/05/16 09:13:49;;;;;;;9.25;2.35;;;26.40;65.60;;;;;;4992513;28;20784;-83
2022/05/16 09:16:34;;;;;;;6.18;2.38;;;26.50;64.40;;;;;;4992377;28;20101;-83
2022/05/16 09:19:33;;;;;;;9.45;2.67;;;26.70;64.50;;;;;;4975173;28;20054;-83
2022/05/16 09:22:15;;;;;;;7.50;2.58;;;27.00;65.00;;;;;;4992521;28;20069;-83
2022/05/16 09:24:50;;;;;;;5.10;2.40;;;27.40;64.70;;;;;;4959269;28;20057;-83
2022/05/16 09:30:13;;;;;;;6.80;2.65;;;28.00;61.20;;;;;;4974777;28;20065;-84
2022/05/16 09:33:06;;;;;;;6.55;2.50;;;27.90;62.40;;;;;;4959641;28;20374;-84
2022/05/16 09:35:40;;;;;;;5.82;2.30;;;27.80;59.30;;;;;;4958460;28;20255;-84
2022/05/16 09:38:12;;;;;;;8.20;2.22;;;27.70;61.30;;;;;;4958551;28;20108;-84
2022/05/16 09:40:58;;;;;;;6.85;2.60;;;27.60;61.10;;;;;;4959290;28;20050;-84
2022/05/16 09:43:49;;;;;;;9.30;2.70;;;27.70;60.00;;;;;;4992210;28;20125;-84
2022/05/16 09:46:12;;;;;;;9.43;3.30;;;27.60;61.40;;;;;;4973244;28;20046;-83
2022/05/16 09:48:38;;;;;;;6.60;2.95;;;27.60;61.30;;;;;;4958556;28;20071;-82
2022/05/16 09:51:15;;;;;;;7.32;3.45;;;27.50;60.40;;;;;;4974192;28;20056;-84
2022/05/16 09:54:13;;;;;;;10.80;2.53;;;27.50;59.80;;;;;;4958839;28;20396;-84
2022/05/16 09:57:03;;;;;;;10.23;2.97;;;27.40;58.90;;;;;;4972663;28;20137;-84
2022/05/16 09:59:49;;;;;;;8.07;3.22;;;27.30;58.90;;;;;;4958373;28;20063;-84
2022/05/16 10:02:26;;;;;;;6.60;2.67;;;27.30;59.80;;;;;;4958299;28;20061;-84
2022/05/16 10:04:56;;;;;;;8.75;3.13;;;27.40;60.60;;;;;;4959394;28;20531;-83
2022/05/16 10:07:27;;;;;;;8.27;2.83;;;27.50;61.20;;;;;;4994961;28;20045;-84
2022/05/16 10:09:54;;;;;;;8.98;3.17;;;27.90;60.80;;;;;;4975249;28;20038;-83
2022/05/16 10:12:26;;;;;;;8.27;2.40;;;28.30;59.10;;;;;;4959496;28;20100;-84
2022/05/16 10:14:52;;;;;;;8.93;2.75;;;28.60;60.20;;;;;;4961994;28;20414;-82
2022/05/16 10:17:34;;;;;;;7.35;2.65;;;28.70;58.70;;;;;;4998846;28;20046;-83
2022/05/16 10:20:09;;;;;;;10.02;2.75;;;28.50;57.30;;;;;;4992419;28;20054;-84
2022/05/16 10:22:36;;;;;;;10.25;3.17;;;28.10;57.30;;;;;;4959089;28;20057;-84
2022/05/16 10:25:19;;;;;;;9.35;2.92;;;27.70;57.80;;;;;;4958193;28;20042;-84
2022/05/16 10:27:48;;;;;;;10.57;2.70;;;27.40;58.20;;;;;;4958483;28;20177;-84
2022/05/16 10:30:20;;;;;;;8.77;3.40;;;27.00;58.30;;;;;;4957866;28;20508;-84
2022/05/16 10:35:47;;;;;;;7.60;2.95;;;26.30;59.90;;;;;;4974755;28;20136;-84
2022/05/16 10:38:28;;;;;;;7.28;3.30;;;26.00;61.70;;;;;;4958417;28;20046;-85
2022/05/16 10:40:59;;;;;;;8.27;3.08;;;25.80;62.00;;;;;;4990582;28;20030;-83
2022/05/16 10:44:00;;;;;;;7.05;3.17;;;25.70;62.00;;;;;;4983507;28;20093;-84
2022/05/16 10:46:30;;;;;;;6.50;2.83;;;25.70;62.30;;;;;;4974844;28;20053;-84
2022/05/16 10:49:18;;;;;;;9.05;3.35;;;25.60;63.20;;;;;;4974049;28;20282;-85
2022/05/16 10:51:57;;;;;;;7.38;2.70;;;25.40;63.60;;;;;;4957656;28;20045;-84
2022/05/16 10:54:25;;;;;;;8.07;2.60;;;25.30;64.60;;;;;;4992092;28;20317;-84
2022/05/16 10:57:15;;;;;;;11.77;3.28;;;25.20;65.10;;;;;;4961932;28;20046;-84
2022/05/16 11:00:00;;;;;;;9.48;3.63;;;25.10;65.50;;;;;;4995256;28;20053;-84
2022/05/16 11:02:54;;;;;;;11.23;3.17;;;25.00;66.90;;;;;;4977618;28;20039;-84
2022/05/16 11:05:26;;;;;;;7.47;2.75;;;24.80;68.30;;;;;;4961362;28;20524;-84
2022/05/16 11:08:24;;;;;;;8.02;2.97;;;24.70;68.00;;;;;;4994985;28;20053;-84
2022/05/16 11:11:16;;;;;;;7.35;2.78;;;24.60;69.50;;;;;;4994706;28;20101;-83
2022/05/16 11:13:45;;;;;;;;;;;24.60;72.20;;;;;;4995295;28;20089;-83
2022/05/16 11:16:39;;;;;;;8.35;3.17;;;24.50;74.30;;;;;;4961801;28;19924;-84
2022/05/16 11:19:29;;;;;;;8.23;3.40;;;24.50;73.30;;;;;;4961745;28;20409;-83
2022/05/16 11:22:22;;;;;;;11.48;2.95;;;24.50;77.30;;;;;;4960869;28;20104;-84
2022/05/16 11:25:11;;;;;;;6.32;2.55;;;24.50;77.90;;;;;;4977440;28;20054;-84
2022/05/16 11:28:06;;;;;;;4.68;2.40;;;24.50;76.70;;;;;;4995196;28;20126;-83
2022/05/16 11:30:47;;;;;;;3.45;2.40;;;24.50;79.00;;;;;;4991931;28;20042;-82
2022/05/16 11:33:37;;;;;;;9.38;3.10;;;24.60;78.30;;;;;;4982210;28;20042;-83
2022/05/16 11:36:06;;;;;;;6.88;2.50;;;24.60;79.20;;;;;;4977184;28;20130;-83
2022/05/16 11:38:56;;;;;;;6.15;2.30;;;24.60;79.10;;;;;;4994451;28;20066;-84
2022/05/16 11:41:24;;;;;;;7.80;3.03;;;24.60;79.90;;;;;;4976727;28;20046;-83
2022/05/16 11:44:10;;;;;;;5.43;2.22;;;24.70;79.40;;;;;;4960490;28;20096;-83
2022/05/16 11:46:57;;;;;;;8.38;3.83;;;24.70;80.40;;;;;;4992988;28;20088;-84
2022/05/16 11:49:22;;;;;;;10.85;3.28;;;24.70;79.30;;;;;;4993053;28;20038;-84
2022/05/16 11:52:08;;;;;;;8.50;3.63;;;24.70;80.00;;;;;;4976610;28;20379;-84
2022/05/16 11:54:40;;;;;;;10.40;3.13;;;24.70;81.50;;;;;;4976591;28;20120;-84
2022/05/16 12:02:59;;;;;;;8.77;2.95;;;24.70;86.30;;;;;;4976603;28;20046;-84
2022/05/16 12:05:26;;;;;;;5.95;2.80;;;24.70;85.70;;;;;;4959470;28;20042;-84
2022/05/16 12:08:04;;;;;;;7.60;3.25;;;24.70;85.40;;;;;;4976182;28;20409;-84
2022/05/16 12:10:31;;;;;;;7.82;3.15;;;24.80;84.40;;;;;;4960027;28;20120;-84
2022/05/16 12:13:19;;;;;;;29.33;6.38;;;24.80;85.20;;;;;;4976483;28;20050;-84
2022/05/16 12:15:46;;;;;;;8.02;3.03;;;24.80;86.60;;;;;;4976370;28;20127;-83
2022/05/16 12:18:40;;;;;;;8.43;3.33;;;24.90;85.50;;;;;;4975959;28;20486;-83
2022/05/16 12:21:13;;;;;;;8.02;3.47;;;24.90;85.80;;;;;;4975439;28;20058;-83
2022/05/16 12:24:00;;;;;;;11.63;3.30;;;25.00;87.80;;;;;;4992334;28;20042;-83
2022/05/16 12:26:25;;;;;;;7.57;2.80;;;25.20;88.90;;;;;;4975814;28;20042;-84
2022/05/16 12:29:14;;;;;;;6.68;3.25;;;25.30;88.40;;;;;;4975859;28;20125;-84
2022/05/16 12:31:45;;;;;;;5.10;3.58;;;25.50;89.50;;;;;;4975716;28;20493;-84
2022/05/16 12:34:11;;;;;;;;;;;25.70;89.50;;;;;;4960123;28;20046;-84
2022/05/16 12:36:38;;;;;;;16.80;4.10;;;25.80;90.00;;;;;;4993126;28;19928;-84
2022/05/16 12:39:21;;;;;;;11.82;3.20;;;25.90;87.20;;;;;;4959687;28;20043;-83
2022/05/16 12:42:27;;;;;;;8.20;3.15;;;26.20;86.80;;;;;;4993111;28;20113;-84
2022/05/16 12:44:59;;;;;;;10.80;3.00;;;26.40;84.50;;;;;;4959418;28;20051;-84
2022/05/16 12:47:49;;;;;;;6.25;2.67;;;26.40;82.50;;;;;;4959851;28;20026;-84
2022/05/16 12:50:21;;;;;;;8.80;3.13;;;26.40;83.80;;;;;;4975366;28;20397;-84
2022/05/16 12:53:06;;;;;;;8.32;3.33;;;26.30;84.20;;;;;;4959434;28;20042;-82
2022/05/16 12:56:00;;;;;;;8.68;3.05;;;26.30;85.00;;;;;;4994436;28;20045;-83
2022/05/16 12:58:42;;;;;;;5.38;3.08;;;26.20;82.10;;;;;;4976650;28;20050;-84
2022/05/16 13:01:17;;;;;;;5.25;2.70;;;26.10;81.00;;;;;;4977809;28;20042;-83
2022/05/16 13:04:08;;;;;;;8.48;3.28;;;26.00;80.90;;;;;;4975552;28;20053;-84
2022/05/16 13:06:59;;;;;;;6.95;3.55;;;25.80;81.80;;;;;;4962573;28;20141;-83
2022/05/16 13:09:58;;;;;;;10.37;4.90;;;25.70;81.70;;;;;;4993838;28;20038;-82
2022/05/16 13:12:48;;;;;;;7.20;4.10;;;25.50;81.70;;;;;;4979830;28;20038;-82
2022/05/16 13:15:39;;;;;;;9.20;4.53;;;25.40;83.80;;;;;;4977947;28;20053;-82
2022/05/16 13:18:22;;;;;;;13.40;5.57;;;25.30;84.50;;;;;;4962308;28;20054;-82
2022/05/16 13:20:52;;;;;;;13.45;5.70;;;25.20;83.70;;;;;;4996467;28;20042;-82
2022/05/16 13:23:19;;;;;;;14.88;6.72;;;25.20;84.80;;;;;;4979159;28;20525;-83
2022/05/16 13:31:33;;;;;;;12.75;6.90;;;25.50;86.00;;;;;;4996355;28;20056;-82
2022/05/16 13:33:59;;;;;;;11.93;6.90;;;25.60;86.30;;;;;;4980306;28;20050;-82
2022/05/16 13:36:25;;;;;;;13.55;7.40;;;25.80;85.80;;;;;;4984894;28;20608;-82
2022/05/16 13:38:57;;;;;;;12.15;6.13;;;26.10;85.30;;;;;;4982661;28;20090;-83
2022/05/16 13:41:24;;;;;;;11.02;7.80;;;26.40;83.20;;;;;;4996386;28;20073;-82
2022/05/16 13:43:52;;;;;;;14.80;7.25;;;26.30;82.10;;;;;;4978880;28;20065;-82
2022/05/16 13:46:18;;;;;;;9.63;6.38;;;26.20;83.50;;;;;;4982226;28;20053;-81
2022/05/16 13:48:44;;;;;;;17.95;7.13;;;26.10;83.40;;;;;;4998201;28;20038;-82
2022/05/16 13:51:10;;;;;;;11.00;5.38;;;26.20;84.80;;;;;;4983211;28;20054;-82
2022/05/16 13:53:37;;;;;;;17.60;6.22;;;26.30;84.60;;;;;;4995390;28;20421;-82
2022/05/16 13:56:03;;;;;;;13.00;6.78;;;26.20;83.50;;;;;;4979677;28;20054;-82
2022/05/16 13:58:32;;;;;;;15.35;8.43;;;26.10;83.40;;;;;;4996883;28;20081;-82
2022/05/16 14:01:18;;;;;;;15.85;8.20;;;25.90;82.90;;;;;;4978864;28;20172;-82
2022/05/16 14:03:55;;;;;;;14.75;8.52;;;25.80;84.00;;;;;;4978437;28;20093;-83
2022/05/16 14:06:50;;;;;;;13.85;8.10;;;25.60;83.90;;;;;;4979885;28;20046;-83
2022/05/16 14:09:25;;;;;;;13.10;8.75;;;25.40;84.10;;;;;;4963867;28;20452;-82
2022/05/16 14:11:52;;;;;;;25.98;10.02;;;25.40;85.10;;;;;;4980453;28;20397;-82
2022/05/16 14:14:22;;;;;;;12.63;8.45;;;25.20;85.20;;;;;;4980183;28;20517;-82